Terminal Aerodrome Forecast
Issued by NWS Blacksburg, VA

Current Version | Previous Version | Graphics & Text | Print | Product List | Glossary On
Versions: 1 2 3 4 5 6 7 8 9 10 11 12 13 14 15 16 17 18 19 20 21 22 23
000
FTUS41 KRNK 270520
TAFBLF
TAF
KBLF 270520Z 2706/2806 VRB03KT P6SM BKN150
     FM271100 25004KT P6SM BKN100
     FM271900 23006KT P6SM SCT050 BKN080
     FM280100 22003KT P6SM BKN040 OVC070=

USA.gov is the U.S. government's official web portal to all federal, state and local government web resources and services.